sensor_id;sensor_type;location;lat;lon;timestamp;P1;durP1;ratioP1;P2;durP2;ratioP2
27495;SDS011;14929;51.336;9.416;2023-05-10T00:00:47;2.58;;;2.47;;
27495;SDS011;14929;51.336;9.416;2023-05-10T00:03:14;2.60;;;2.40;;
27495;SDS011;14929;51.336;9.416;2023-05-10T00:05:42;2.70;;;2.50;;
27495;SDS011;14929;51.336;9.416;2023-05-10T00:08:09;2.65;;;2.45;;
27495;SDS011;14929;51.336;9.416;2023-05-10T00:10:36;2.70;;;2.45;;
27495;SDS011;14929;51.336;9.416;2023-05-10T00:13:05;2.28;;;2.17;;
27495;SDS011;14929;51.336;9.416;2023-05-10T00:15:34;2.20;;;2.10;;
27495;SDS011;14929;51.336;9.416;2023-05-10T00:18:01;2.05;;;1.95;;
27495;SDS011;14929;51.336;9.416;2023-05-10T00:20:29;2.75;;;2.55;;
27495;SDS011;14929;51.336;9.416;2023-05-10T00:22:57;2.45;;;2.33;;
27495;SDS011;14929;51.336;9.416;2023-05-10T00:25:24;3.15;;;2.85;;
27495;SDS011;14929;51.336;9.416;2023-05-10T00:27:51;2.60;;;2.40;;
27495;SDS011;14929;51.336;9.416;2023-05-10T00:30:20;2.20;;;2.05;;
27495;SDS011;14929;51.336;9.416;2023-05-10T00:32:49;2.47;;;2.30;;
27495;SDS011;14929;51.336;9.416;2023-05-10T00:35:16;2.47;;;2.28;;
27495;SDS011;14929;51.336;9.416;2023-05-10T00:37:44;2.40;;;2.20;;
27495;SDS011;14929;51.336;9.416;2023-05-10T00:40:12;3.08;;;2.72;;
27495;SDS011;14929;51.336;9.416;2023-05-10T00:42:40;2.78;;;2.58;;
27495;SDS011;14929;51.336;9.416;2023-05-10T00:45:07;2.47;;;2.28;;
27495;SDS011;14929;51.336;9.416;2023-05-10T00:47:36;2.30;;;2.20;;
27495;SDS011;14929;51.336;9.416;2023-05-10T00:50:06;2.50;;;2.30;;
27495;SDS011;14929;51.336;9.416;2023-05-10T00:52:34;3.00;;;2.80;;
27495;SDS011;14929;51.336;9.416;2023-05-10T00:55:01;2.55;;;2.20;;
27495;SDS011;14929;51.336;9.416;2023-05-10T00:57:29;2.67;;;2.47;;
27495;SDS011;14929;51.336;9.416;2023-05-10T00:59:57;2.20;;;2.10;;
27495;SDS011;14929;51.336;9.416;2023-05-10T01:02:25;2.47;;;2.38;;
27495;SDS011;14929;51.336;9.416;2023-05-10T01:04:53;2.30;;;2.20;;
27495;SDS011;14929;51.336;9.416;2023-05-10T01:07:22;3.15;;;2.85;;
27495;SDS011;14929;51.336;9.416;2023-05-10T01:09:50;2.63;;;2.42;;
27495;SDS011;14929;51.336;9.416;2023-05-10T01:12:17;3.08;;;2.88;;
27495;SDS011;14929;51.336;9.416;2023-05-10T01:14:44;3.08;;;2.88;;
27495;SDS011;14929;51.336;9.416;2023-05-10T01:17:12;3.05;;;2.75;;
27495;SDS011;14929;51.336;9.416;2023-05-10T01:19:41;4.35;;;3.20;;
27495;SDS011;14929;51.336;9.416;2023-05-10T01:22:12;3.28;;;3.08;;
27495;SDS011;14929;51.336;9.416;2023-05-10T01:25:05;2.83;;;2.63;;
27495;SDS011;14929;51.336;9.416;2023-05-10T01:28:02;5.55;;;3.33;;
27495;SDS011;14929;51.336;9.416;2023-05-10T01:30:53;3.28;;;2.85;;
27495;SDS011;14929;51.336;9.416;2023-05-10T01:33:52;3.08;;;2.88;;
27495;SDS011;14929;51.336;9.416;2023-05-10T01:36:26;3.70;;;3.40;;
27495;SDS011;14929;51.336;9.416;2023-05-10T01:38:58;3.08;;;2.88;;
27495;SDS011;14929;51.336;9.416;2023-05-10T01:41:33;2.58;;;2.38;;
27495;SDS011;14929;51.336;9.416;2023-05-10T01:44:09;2.33;;;2.13;;
27495;SDS011;14929;51.336;9.416;2023-05-10T01:46:43;2.80;;;2.60;;
27495;SDS011;14929;51.336;9.416;2023-05-10T01:49:20;2.47;;;2.28;;
27495;SDS011;14929;51.336;9.416;2023-05-10T01:51:53;2.35;;;2.15;;
27495;SDS011;14929;51.336;9.416;2023-05-10T01:54:23;3.42;;;2.65;;
27495;SDS011;14929;51.336;9.416;2023-05-10T01:56:52;2.95;;;2.75;;
27495;SDS011;14929;51.336;9.416;2023-05-10T01:59:24;2.53;;;2.42;;
27495;SDS011;14929;51.336;9.416;2023-05-10T02:01:56;3.00;;;2.80;;
27495;SDS011;14929;51.336;9.416;2023-05-10T02:04:27;2.13;;;2.03;;
27495;SDS011;14929;51.336;9.416;2023-05-10T02:06:55;2.45;;;2.35;;
27495;SDS011;14929;51.336;9.416;2023-05-10T02:09:23;2.70;;;2.50;;
27495;SDS011;14929;51.336;9.416;2023-05-10T02:11:51;2.63;;;2.42;;
27495;SDS011;14929;51.336;9.416;2023-05-10T02:14:21;2.55;;;2.35;;
27495;SDS011;14929;51.336;9.416;2023-05-10T02:16:49;2.40;;;2.30;;
27495;SDS011;14929;51.336;9.416;2023-05-10T02:19:17;2.13;;;2.03;;
27495;SDS011;14929;51.336;9.416;2023-05-10T02:21:47;1.70;;;1.60;;
27495;SDS011;14929;51.336;9.416;2023-05-10T02:24:16;1.73;;;1.63;;
27495;SDS011;14929;51.336;9.416;2023-05-10T02:26:45;2.30;;;2.10;;
27495;SDS011;14929;51.336;9.416;2023-05-10T02:29:14;2.38;;;2.08;;
27495;SDS011;14929;51.336;9.416;2023-05-10T02:31:41;2.40;;;2.20;;
27495;SDS011;14929;51.336;9.416;2023-05-10T02:34:09;2.20;;;2.08;;
27495;SDS011;14929;51.336;9.416;2023-05-10T02:36:37;2.35;;;2.20;;
27495;SDS011;14929;51.336;9.416;2023-05-10T02:39:06;1.90;;;1.80;;
27495;SDS011;14929;51.336;9.416;2023-05-10T02:41:37;2.47;;;2.28;;
27495;SDS011;14929;51.336;9.416;2023-05-10T02:44:06;1.92;;;1.83;;
27495;SDS011;14929;51.336;9.416;2023-05-10T02:46:35;2.03;;;1.85;;
27495;SDS011;14929;51.336;9.416;2023-05-10T02:49:03;1.70;;;1.60;;
27495;SDS011;14929;51.336;9.416;2023-05-10T02:51:31;1.90;;;1.80;;
27495;SDS011;14929;51.336;9.416;2023-05-10T02:54:01;1.85;;;1.75;;
27495;SDS011;14929;51.336;9.416;2023-05-10T02:56:47;1.48;;;1.38;;
27495;SDS011;14929;51.336;9.416;2023-05-10T02:59:17;1.70;;;1.60;;
27495;SDS011;14929;51.336;9.416;2023-05-10T03:01:44;1.83;;;1.73;;
27495;SDS011;14929;51.336;9.416;2023-05-10T03:04:12;1.70;;;1.60;;
27495;SDS011;14929;51.336;9.416;2023-05-10T03:06:40;1.70;;;1.60;;
27495;SDS011;14929;51.336;9.416;2023-05-10T03:09:07;1.02;;;1.02;;
27495;SDS011;14929;51.336;9.416;2023-05-10T03:11:41;1.27;;;1.17;;
27495;SDS011;14929;51.336;9.416;2023-05-10T03:14:17;0.80;;;0.80;;
27495;SDS011;14929;51.336;9.416;2023-05-10T03:16:52;0.80;;;0.80;;
27495;SDS011;14929;51.336;9.416;2023-05-10T03:19:26;1.20;;;1.10;;
27495;SDS011;14929;51.336;9.416;2023-05-10T03:21:59;0.88;;;0.88;;
27495;SDS011;14929;51.336;9.416;2023-05-10T03:24:30;0.90;;;0.90;;
27495;SDS011;14929;51.336;9.416;2023-05-10T03:26:59;0.90;;;0.90;;
27495;SDS011;14929;51.336;9.416;2023-05-10T03:29:27;0.52;;;0.52;;
27495;SDS011;14929;51.336;9.416;2023-05-10T03:31:57;1.17;;;0.88;;
27495;SDS011;14929;51.336;9.416;2023-05-10T03:34:25;0.90;;;0.90;;
27495;SDS011;14929;51.336;9.416;2023-05-10T03:36:53;1.95;;;0.80;;
27495;SDS011;14929;51.336;9.416;2023-05-10T03:39:20;0.70;;;0.70;;
27495;SDS011;14929;51.336;9.416;2023-05-10T03:41:48;0.98;;;0.90;;
27495;SDS011;14929;51.336;9.416;2023-05-10T03:44:17;0.75;;;0.75;;
27495;SDS011;14929;51.336;9.416;2023-05-10T03:46:44;0.90;;;0.90;;
27495;SDS011;14929;51.336;9.416;2023-05-10T03:49:12;0.73;;;0.73;;
27495;SDS011;14929;51.336;9.416;2023-05-10T03:51:39;1.30;;;1.20;;
27495;SDS011;14929;51.336;9.416;2023-05-10T03:54:07;0.90;;;0.90;;
27495;SDS011;14929;51.336;9.416;2023-05-10T03:56:34;0.70;;;0.70;;
27495;SDS011;14929;51.336;9.416;2023-05-10T03:59:02;0.73;;;0.73;;
27495;SDS011;14929;51.336;9.416;2023-05-10T04:01:33;1.67;;;1.00;;
27495;SDS011;14929;51.336;9.416;2023-05-10T04:04:01;0.70;;;0.70;;
27495;SDS011;14929;51.336;9.416;2023-05-10T04:06:28;0.88;;;0.88;;
27495;SDS011;14929;51.336;9.416;2023-05-10T04:08:56;1.20;;;0.52;;
27495;SDS011;14929;51.336;9.416;2023-05-10T04:11:28;0.60;;;0.60;;
27495;SDS011;14929;51.336;9.416;2023-05-10T04:13:56;0.52;;;0.52;;
27495;SDS011;14929;51.336;9.416;2023-05-10T04:16:23;0.40;;;0.40;;
27495;SDS011;14929;51.336;9.416;2023-05-10T04:18:52;0.45;;;0.45;;
27495;SDS011;14929;51.336;9.416;2023-05-10T04:21:20;0.40;;;0.40;;
27495;SDS011;14929;51.336;9.416;2023-05-10T04:23:47;0.50;;;0.50;;
27495;SDS011;14929;51.336;9.416;2023-05-10T04:26:15;0.50;;;0.50;;
27495;SDS011;14929;51.336;9.416;2023-05-10T04:28:42;0.35;;;0.35;;
27495;SDS011;14929;51.336;9.416;2023-05-10T04:31:10;0.60;;;0.60;;
27495;SDS011;14929;51.336;9.416;2023-05-10T04:33:37;0.68;;;0.68;;
27495;SDS011;14929;51.336;9.416;2023-05-10T04:36:06;0.50;;;0.50;;
27495;SDS011;14929;51.336;9.416;2023-05-10T04:38:34;0.30;;;0.30;;
27495;SDS011;14929;51.336;9.416;2023-05-10T04:41:05;0.50;;;0.50;;
27495;SDS011;14929;51.336;9.416;2023-05-10T04:43:34;0.43;;;0.43;;
27495;SDS011;14929;51.336;9.416;2023-05-10T04:46:02;0.40;;;0.40;;
27495;SDS011;14929;51.336;9.416;2023-05-10T04:48:29;0.50;;;0.50;;
27495;SDS011;14929;51.336;9.416;2023-05-10T04:50:57;0.60;;;0.60;;
27495;SDS011;14929;51.336;9.416;2023-05-10T04:53:26;0.52;;;0.52;;
27495;SDS011;14929;51.336;9.416;2023-05-10T04:55:53;0.52;;;0.52;;
27495;SDS011;14929;51.336;9.416;2023-05-10T04:58:21;0.45;;;0.45;;
27495;SDS011;14929;51.336;9.416;2023-05-10T05:00:48;0.70;;;0.70;;
27495;SDS011;14929;51.336;9.416;2023-05-10T05:03:16;0.52;;;0.50;;
27495;SDS011;14929;51.336;9.416;2023-05-10T05:05:43;0.68;;;0.50;;
27495;SDS011;14929;51.336;9.416;2023-05-10T05:08:11;0.70;;;0.70;;
27495;SDS011;14929;51.336;9.416;2023-05-10T05:10:40;0.70;;;0.65;;
27495;SDS011;14929;51.336;9.416;2023-05-10T05:13:07;0.52;;;0.52;;
27495;SDS011;14929;51.336;9.416;2023-05-10T05:15:35;0.60;;;0.60;;
27495;SDS011;14929;51.336;9.416;2023-05-10T05:18:02;0.52;;;0.47;;
27495;SDS011;14929;51.336;9.416;2023-05-10T05:20:31;0.88;;;0.88;;
27495;SDS011;14929;51.336;9.416;2023-05-10T05:22:59;0.40;;;0.40;;
27495;SDS011;14929;51.336;9.416;2023-05-10T05:25:26;0.52;;;0.52;;
27495;SDS011;14929;51.336;9.416;2023-05-10T05:27:55;1.35;;;0.40;;
27495;SDS011;14929;51.336;9.416;2023-05-10T05:30:23;0.50;;;0.50;;
27495;SDS011;14929;51.336;9.416;2023-05-10T05:32:50;0.57;;;0.57;;
27495;SDS011;14929;51.336;9.416;2023-05-10T05:35:18;0.60;;;0.60;;
27495;SDS011;14929;51.336;9.416;2023-05-10T05:37:45;0.47;;;0.47;;
27495;SDS011;14929;51.336;9.416;2023-05-10T05:40:13;0.30;;;0.30;;
27495;SDS011;14929;51.336;9.416;2023-05-10T05:42:40;0.45;;;0.45;;
27495;SDS011;14929;51.336;9.416;2023-05-10T05:45:09;0.50;;;0.50;;
27495;SDS011;14929;51.336;9.416;2023-05-10T05:47:38;0.28;;;0.28;;
27495;SDS011;14929;51.336;9.416;2023-05-10T05:50:06;0.30;;;0.30;;
27495;SDS011;14929;51.336;9.416;2023-05-10T05:52:34;0.40;;;0.40;;
27495;SDS011;14929;51.336;9.416;2023-05-10T05:55:02;0.40;;;0.40;;
27495;SDS011;14929;51.336;9.416;2023-05-10T05:57:30;0.30;;;0.30;;
27495;SDS011;14929;51.336;9.416;2023-05-10T05:59:58;0.30;;;0.30;;
27495;SDS011;14929;51.336;9.416;2023-05-10T06:02:26;0.52;;;0.52;;
27495;SDS011;14929;51.336;9.416;2023-05-10T06:04:54;0.30;;;0.30;;
27495;SDS011;14929;51.336;9.416;2023-05-10T06:07:21;0.40;;;0.40;;
27495;SDS011;14929;51.336;9.416;2023-05-10T06:09:49;0.50;;;0.50;;
27495;SDS011;14929;51.336;9.416;2023-05-10T06:12:16;0.38;;;0.38;;
27495;SDS011;14929;51.336;9.416;2023-05-10T06:14:44;0.32;;;0.32;;
27495;SDS011;14929;51.336;9.416;2023-05-10T06:17:11;0.30;;;0.30;;
27495;SDS011;14929;51.336;9.416;2023-05-10T06:19:40;0.22;;;0.22;;
27495;SDS011;14929;51.336;9.416;2023-05-10T06:22:08;0.28;;;0.28;;
27495;SDS011;14929;51.336;9.416;2023-05-10T06:24:35;1.20;;;0.30;;
27495;SDS011;14929;51.336;9.416;2023-05-10T06:27:03;0.32;;;0.32;;
27495;SDS011;14929;51.336;9.416;2023-05-10T06:29:30;0.35;;;0.35;;
27495;SDS011;14929;51.336;9.416;2023-05-10T06:31:58;0.40;;;0.40;;
27495;SDS011;14929;51.336;9.416;2023-05-10T06:34:25;0.55;;;0.55;;
27495;SDS011;14929;51.336;9.416;2023-05-10T06:36:54;0.40;;;0.40;;
27495;SDS011;14929;51.336;9.416;2023-05-10T06:39:21;0.30;;;0.30;;
27495;SDS011;14929;51.336;9.416;2023-05-10T06:41:49;0.50;;;0.50;;
27495;SDS011;14929;51.336;9.416;2023-05-10T06:44:17;0.30;;;0.30;;
27495;SDS011;14929;51.336;9.416;2023-05-10T06:46:44;0.60;;;0.60;;
27495;SDS011;14929;51.336;9.416;2023-05-10T06:49:11;0.32;;;0.32;;
27495;SDS011;14929;51.336;9.416;2023-05-10T06:51:39;0.40;;;0.40;;
27495;SDS011;14929;51.336;9.416;2023-05-10T06:54:08;0.52;;;0.52;;
27495;SDS011;14929;51.336;9.416;2023-05-10T06:56:35;0.40;;;0.40;;
27495;SDS011;14929;51.336;9.416;2023-05-10T06:59:03;0.70;;;0.70;;
27495;SDS011;14929;51.336;9.416;2023-05-10T07:01:30;0.57;;;0.57;;
27495;SDS011;14929;51.336;9.416;2023-05-10T07:03:58;0.40;;;0.40;;
27495;SDS011;14929;51.336;9.416;2023-05-10T07:06:25;0.38;;;0.38;;
27495;SDS011;14929;51.336;9.416;2023-05-10T07:08:53;0.40;;;0.40;;
27495;SDS011;14929;51.336;9.416;2023-05-10T07:11:21;0.25;;;0.25;;
27495;SDS011;14929;51.336;9.416;2023-05-10T07:13:49;0.40;;;0.40;;
27495;SDS011;14929;51.336;9.416;2023-05-10T07:16:17;0.40;;;0.40;;
27495;SDS011;14929;51.336;9.416;2023-05-10T07:18:44;0.30;;;0.30;;
27495;SDS011;14929;51.336;9.416;2023-05-10T07:21:12;0.60;;;0.60;;
27495;SDS011;14929;51.336;9.416;2023-05-10T07:23:39;8.90;;;3.70;;
27495;SDS011;14929;51.336;9.416;2023-05-10T07:26:07;1.67;;;1.58;;
27495;SDS011;14929;51.336;9.416;2023-05-10T07:28:36;1.20;;;1.10;;
27495;SDS011;14929;51.336;9.416;2023-05-10T07:31:04;0.68;;;0.50;;
27495;SDS011;14929;51.336;9.416;2023-05-10T07:33:31;0.63;;;0.60;;
27495;SDS011;14929;51.336;9.416;2023-05-10T07:35:59;1.40;;;0.52;;
27495;SDS011;14929;51.336;9.416;2023-05-10T07:38:26;0.70;;;0.70;;
27495;SDS011;14929;51.336;9.416;2023-05-10T07:40:54;0.30;;;0.30;;
27495;SDS011;14929;51.336;9.416;2023-05-10T07:43:21;0.50;;;0.50;;
27495;SDS011;14929;51.336;9.416;2023-05-10T07:45:50;0.80;;;0.80;;
27495;SDS011;14929;51.336;9.416;2023-05-10T07:48:18;0.40;;;0.40;;
27495;SDS011;14929;51.336;9.416;2023-05-10T07:50:45;0.38;;;0.38;;
27495;SDS011;14929;51.336;9.416;2023-05-10T07:53:13;2.47;;;0.70;;
27495;SDS011;14929;51.336;9.416;2023-05-10T07:55:40;0.32;;;0.32;;
27495;SDS011;14929;51.336;9.416;2023-05-10T07:58:08;0.60;;;0.40;;
27495;SDS011;14929;51.336;9.416;2023-05-10T08:00:35;0.82;;;0.77;;
27495;SDS011;14929;51.336;9.416;2023-05-10T08:03:05;0.50;;;0.50;;
27495;SDS011;14929;51.336;9.416;2023-05-10T08:05:33;0.40;;;0.40;;
27495;SDS011;14929;51.336;9.416;2023-05-10T08:08:00;0.43;;;0.43;;
27495;SDS011;14929;51.336;9.416;2023-05-10T08:10:28;0.60;;;0.60;;
27495;SDS011;14929;51.336;9.416;2023-05-10T08:12:56;0.70;;;0.70;;
27495;SDS011;14929;51.336;9.416;2023-05-10T08:15:23;0.32;;;0.32;;
27495;SDS011;14929;51.336;9.416;2023-05-10T08:17:51;0.60;;;0.60;;
27495;SDS011;14929;51.336;9.416;2023-05-10T08:20:20;0.57;;;0.57;;
27495;SDS011;14929;51.336;9.416;2023-05-10T08:22:48;0.80;;;0.80;;
27495;SDS011;14929;51.336;9.416;2023-05-10T08:25:15;1.65;;;0.93;;
27495;SDS011;14929;51.336;9.416;2023-05-10T08:27:43;0.80;;;0.80;;
27495;SDS011;14929;51.336;9.416;2023-05-10T08:30:11;0.55;;;0.55;;
27495;SDS011;14929;51.336;9.416;2023-05-10T08:32:39;0.63;;;0.63;;
27495;SDS011;14929;51.336;9.416;2023-05-10T08:35:06;0.75;;;0.63;;
27495;SDS011;14929;51.336;9.416;2023-05-10T08:37:35;1.02;;;1.02;;
27495;SDS011;14929;51.336;9.416;2023-05-10T08:40:03;0.60;;;0.60;;
27495;SDS011;14929;51.336;9.416;2023-05-10T08:42:33;0.80;;;0.80;;
27495;SDS011;14929;51.336;9.416;2023-05-10T08:45:03;3.25;;;1.10;;
27495;SDS011;14929;51.336;9.416;2023-05-10T08:47:33;0.80;;;0.80;;
27495;SDS011;14929;51.336;9.416;2023-05-10T08:50:01;0.90;;;0.90;;
27495;SDS011;14929;51.336;9.416;2023-05-10T08:52:30;1.33;;;1.08;;
27495;SDS011;14929;51.336;9.416;2023-05-10T08:54:59;2.92;;;1.50;;
27495;SDS011;14929;51.336;9.416;2023-05-10T08:57:26;2.10;;;2.00;;
27495;SDS011;14929;51.336;9.416;2023-05-10T08:59:54;1.20;;;1.20;;
27495;SDS011;14929;51.336;9.416;2023-05-10T09:02:22;1.20;;;1.20;;
27495;SDS011;14929;51.336;9.416;2023-05-10T09:04:50;1.35;;;1.20;;
27495;SDS011;14929;51.336;9.416;2023-05-10T09:07:18;1.50;;;1.40;;
27495;SDS011;14929;51.336;9.416;2023-05-10T09:09:45;1.75;;;1.60;;
27495;SDS011;14929;51.336;9.416;2023-05-10T09:12:14;3.75;;;1.70;;
27495;SDS011;14929;51.336;9.416;2023-05-10T09:14:42;3.47;;;1.60;;
27495;SDS011;14929;51.336;9.416;2023-05-10T09:17:11;1.40;;;1.30;;
27495;SDS011;14929;51.336;9.416;2023-05-10T09:19:39;1.70;;;1.60;;
27495;SDS011;14929;51.336;9.416;2023-05-10T09:22:06;3.60;;;2.17;;
27495;SDS011;14929;51.336;9.416;2023-05-10T09:24:34;2.40;;;1.85;;
27495;SDS011;14929;51.336;9.416;2023-05-10T09:27:01;2.13;;;1.80;;
27495;SDS011;14929;51.336;9.416;2023-05-10T09:29:39;2.10;;;1.90;;
27495;SDS011;14929;51.336;9.416;2023-05-10T09:32:07;1.73;;;1.63;;
27495;SDS011;14929;51.336;9.416;2023-05-10T09:34:35;1.65;;;1.55;;
27495;SDS011;14929;51.336;9.416;2023-05-10T09:37:05;1.77;;;1.67;;
27495;SDS011;14929;51.336;9.416;2023-05-10T09:39:33;2.00;;;1.90;;
27495;SDS011;14929;51.336;9.416;2023-05-10T09:42:03;1.17;;;1.13;;
27495;SDS011;14929;51.336;9.416;2023-05-10T09:44:32;1.73;;;1.63;;
27495;SDS011;14929;51.336;9.416;2023-05-10T09:47:01;2.15;;;1.27;;
27495;SDS011;14929;51.336;9.416;2023-05-10T09:49:30;1.77;;;1.67;;
27495;SDS011;14929;51.336;9.416;2023-05-10T09:52:01;1.60;;;1.50;;
27495;SDS011;14929;51.336;9.416;2023-05-10T09:54:30;2.08;;;1.98;;
27495;SDS011;14929;51.336;9.416;2023-05-10T09:56:58;1.42;;;1.33;;
27495;SDS011;14929;51.336;9.416;2023-05-10T09:59:26;2.55;;;1.83;;
27495;SDS011;14929;51.336;9.416;2023-05-10T10:01:55;2.95;;;1.50;;
27495;SDS011;14929;51.336;9.416;2023-05-10T10:04:25;1.63;;;1.52;;
27495;SDS011;14929;51.336;9.416;2023-05-10T10:06:59;5.57;;;2.00;;
27495;SDS011;14929;51.336;9.416;2023-05-10T10:09:28;2.00;;;1.52;;
27495;SDS011;14929;51.336;9.416;2023-05-10T10:11:56;2.22;;;1.95;;
27495;SDS011;14929;51.336;9.416;2023-05-10T10:14:24;1.70;;;1.60;;
27495;SDS011;14929;51.336;9.416;2023-05-10T10:16:52;1.50;;;1.40;;
27495;SDS011;14929;51.336;9.416;2023-05-10T10:19:20;1.83;;;1.73;;
27495;SDS011;14929;51.336;9.416;2023-05-10T10:21:50;7.28;;;5.82;;
27495;SDS011;14929;51.336;9.416;2023-05-10T10:24:17;3.30;;;3.00;;
27495;SDS011;14929;51.336;9.416;2023-05-10T10:26:45;2.47;;;2.22;;
27495;SDS011;14929;51.336;9.416;2023-05-10T10:29:17;1.95;;;1.85;;
27495;SDS011;14929;51.336;9.416;2023-05-10T10:31:51;1.90;;;1.80;;
27495;SDS011;14929;51.336;9.416;2023-05-10T10:34:27;2.45;;;2.25;;
27495;SDS011;14929;51.336;9.416;2023-05-10T10:36:57;2.95;;;2.00;;
27495;SDS011;14929;51.336;9.416;2023-05-10T10:39:29;2.00;;;1.90;;
27495;SDS011;14929;51.336;9.416;2023-05-10T10:41:58;2.65;;;2.45;;
27495;SDS011;14929;51.336;9.416;2023-05-10T10:44:37;2.38;;;2.28;;
27495;SDS011;14929;51.336;9.416;2023-05-10T10:47:06;2.67;;;2.47;;
27495;SDS011;14929;51.336;9.416;2023-05-10T10:50:02;2.30;;;2.10;;
27495;SDS011;14929;51.336;9.416;2023-05-10T10:52:33;2.47;;;2.28;;
27495;SDS011;14929;51.336;9.416;2023-05-10T10:55:02;2.80;;;2.60;;
27495;SDS011;14929;51.336;9.416;2023-05-10T10:57:34;2.47;;;2.25;;
27495;SDS011;14929;51.336;9.416;2023-05-10T11:03:05;3.92;;;2.55;;
27495;SDS011;14929;51.336;9.416;2023-05-10T11:05:37;2.38;;;2.17;;
27495;SDS011;14929;51.336;9.416;2023-05-10T11:08:10;2.55;;;2.33;;
27495;SDS011;14929;51.336;9.416;2023-05-10T11:13:34;3.60;;;2.33;;
27495;SDS011;14929;51.336;9.416;2023-05-10T11:16:13;2.20;;;2.05;;
27495;SDS011;14929;51.336;9.416;2023-05-10T11:18:53;2.03;;;1.92;;
27495;SDS011;14929;51.336;9.416;2023-05-10T11:21:27;1.90;;;1.80;;
27495;SDS011;14929;51.336;9.416;2023-05-10T11:23:56;3.58;;;2.83;;
27495;SDS011;14929;51.336;9.416;2023-05-10T11:26:25;1.65;;;1.55;;
27495;SDS011;14929;51.336;9.416;2023-05-10T11:28:59;2.20;;;2.00;;
27495;SDS011;14929;51.336;9.416;2023-05-10T11:31:29;1.85;;;1.75;;
27495;SDS011;14929;51.336;9.416;2023-05-10T11:33:58;1.90;;;1.73;;
27495;SDS011;14929;51.336;9.416;2023-05-10T11:36:27;2.03;;;1.90;;
27495;SDS011;14929;51.336;9.416;2023-05-10T11:39:00;2.42;;;2.22;;
27495;SDS011;14929;51.336;9.416;2023-05-10T11:41:28;1.90;;;1.80;;
27495;SDS011;14929;51.336;9.416;2023-05-10T11:43:57;2.25;;;2.05;;
27495;SDS011;14929;51.336;9.416;2023-05-10T11:46:26;1.80;;;1.70;;
27495;SDS011;14929;51.336;9.416;2023-05-10T11:48:55;2.55;;;2.35;;
27495;SDS011;14929;51.336;9.416;2023-05-10T11:51:29;2.42;;;2.22;;
27495;SDS011;14929;51.336;9.416;2023-05-10T11:54:00;2.60;;;2.40;;
27495;SDS011;14929;51.336;9.416;2023-05-10T11:56:28;3.50;;;2.38;;
27495;SDS011;14929;51.336;9.416;2023-05-10T11:58:56;2.05;;;1.92;;
27495;SDS011;14929;51.336;9.416;2023-05-10T12:01:26;2.58;;;2.38;;
27495;SDS011;14929;51.336;9.416;2023-05-10T12:03:55;1.73;;;1.52;;
27495;SDS011;14929;51.336;9.416;2023-05-10T12:06:26;2.47;;;2.28;;
27495;SDS011;14929;51.336;9.416;2023-05-10T12:08:56;2.17;;;2.08;;
27495;SDS011;14929;51.336;9.416;2023-05-10T12:11:25;2.72;;;2.53;;
27495;SDS011;14929;51.336;9.416;2023-05-10T12:13:55;2.28;;;2.08;;
27495;SDS011;14929;51.336;9.416;2023-05-10T12:16:23;2.95;;;2.75;;
27495;SDS011;14929;51.336;9.416;2023-05-10T12:18:52;18.13;;;16.20;;
27495;SDS011;14929;51.336;9.416;2023-05-10T12:21:22;12.18;;;10.90;;
27495;SDS011;14929;51.336;9.416;2023-05-10T12:23:51;6.40;;;5.80;;
27495;SDS011;14929;51.336;9.416;2023-05-10T12:26:21;3.35;;;3.05;;
27495;SDS011;14929;51.336;9.416;2023-05-10T12:28:50;3.20;;;2.90;;
27495;SDS011;14929;51.336;9.416;2023-05-10T12:31:18;2.38;;;2.17;;
27495;SDS011;14929;51.336;9.416;2023-05-10T12:33:46;2.17;;;2.03;;
27495;SDS011;14929;51.336;9.416;2023-05-10T12:36:15;2.13;;;1.88;;
27495;SDS011;14929;51.336;9.416;2023-05-10T12:38:43;2.53;;;2.33;;
27495;SDS011;14929;51.336;9.416;2023-05-10T12:41:14;4.45;;;2.70;;
27495;SDS011;14929;51.336;9.416;2023-05-10T12:43:42;2.70;;;2.50;;
27495;SDS011;14929;51.336;9.416;2023-05-10T12:46:13;2.78;;;2.03;;
27495;SDS011;14929;51.336;9.416;2023-05-10T12:48:43;2.63;;;2.13;;
27495;SDS011;14929;51.336;9.416;2023-05-10T12:51:14;4.63;;;2.67;;
27495;SDS011;14929;51.336;9.416;2023-05-10T12:53:42;3.78;;;2.67;;
27495;SDS011;14929;51.336;9.416;2023-05-10T12:56:10;2.50;;;2.05;;
27495;SDS011;14929;51.336;9.416;2023-05-10T12:58:38;2.35;;;1.75;;
27495;SDS011;14929;51.336;9.416;2023-05-10T13:01:05;2.67;;;1.70;;
27495;SDS011;14929;51.336;9.416;2023-05-10T13:03:34;1.60;;;1.50;;
27495;SDS011;14929;51.336;9.416;2023-05-10T13:06:02;3.00;;;2.67;;
27495;SDS011;14929;51.336;9.416;2023-05-10T13:08:30;4.13;;;2.30;;
27495;SDS011;14929;51.336;9.416;2023-05-10T13:10:58;2.35;;;2.15;;
27495;SDS011;14929;51.336;9.416;2023-05-10T13:13:26;2.47;;;2.25;;
27495;SDS011;14929;51.336;9.416;2023-05-10T13:15:53;2.13;;;1.92;;
27495;SDS011;14929;51.336;9.416;2023-05-10T13:18:21;2.80;;;1.92;;
27495;SDS011;14929;51.336;9.416;2023-05-10T13:20:50;2.70;;;2.20;;
27495;SDS011;14929;51.336;9.416;2023-05-10T13:23:18;3.08;;;2.80;;
27495;SDS011;14929;51.336;9.416;2023-05-10T13:25:45;2.28;;;2.08;;
27495;SDS011;14929;51.336;9.416;2023-05-10T13:28:13;2.03;;;1.83;;
27495;SDS011;14929;51.336;9.416;2023-05-10T13:30:40;2.90;;;2.10;;
27495;SDS011;14929;51.336;9.416;2023-05-10T13:33:08;2.10;;;1.90;;
27495;SDS011;14929;51.336;9.416;2023-05-10T13:35:35;1.60;;;1.50;;
27495;SDS011;14929;51.336;9.416;2023-05-10T13:38:04;1.98;;;1.83;;
27495;SDS011;14929;51.336;9.416;2023-05-10T13:40:32;2.25;;;1.85;;
27495;SDS011;14929;51.336;9.416;2023-05-10T13:43:00;4.35;;;1.67;;
27495;SDS011;14929;51.336;9.416;2023-05-10T13:45:28;1.75;;;1.65;;
27495;SDS011;14929;51.336;9.416;2023-05-10T13:47:56;1.95;;;1.70;;
27495;SDS011;14929;51.336;9.416;2023-05-10T13:50:23;1.40;;;1.30;;
27495;SDS011;14929;51.336;9.416;2023-05-10T13:52:50;1.83;;;1.73;;
27495;SDS011;14929;51.336;9.416;2023-05-10T13:55:19;2.20;;;1.58;;
27495;SDS011;14929;51.336;9.416;2023-05-10T13:57:47;1.55;;;1.45;;
27495;SDS011;14929;51.336;9.416;2023-05-10T14:00:15;1.40;;;1.30;;
27495;SDS011;14929;51.336;9.416;2023-05-10T14:02:43;0.90;;;0.90;;
27495;SDS011;14929;51.336;9.416;2023-05-10T14:05:10;1.48;;;1.38;;
27495;SDS011;14929;51.336;9.416;2023-05-10T14:07:38;1.65;;;1.55;;
27495;SDS011;14929;51.336;9.416;2023-05-10T14:10:06;1.77;;;1.30;;
27495;SDS011;14929;51.336;9.416;2023-05-10T14:12:35;1.95;;;1.67;;
27495;SDS011;14929;51.336;9.416;2023-05-10T14:15:03;1.45;;;1.35;;
27495;SDS011;14929;51.336;9.416;2023-05-10T14:17:31;1.40;;;1.30;;
27495;SDS011;14929;51.336;9.416;2023-05-10T14:19:59;1.88;;;1.42;;
27495;SDS011;14929;51.336;9.416;2023-05-10T14:22:27;1.75;;;1.63;;
27495;SDS011;14929;51.336;9.416;2023-05-10T14:24:54;2.30;;;1.92;;
27495;SDS011;14929;51.336;9.416;2023-05-10T14:27:22;1.83;;;1.73;;
27495;SDS011;14929;51.336;9.416;2023-05-10T14:29:51;3.00;;;2.60;;
27495;SDS011;14929;51.336;9.416;2023-05-10T14:32:19;2.45;;;2.20;;
27495;SDS011;14929;51.336;9.416;2023-05-10T14:34:46;4.03;;;2.40;;
27495;SDS011;14929;51.336;9.416;2023-05-10T14:37:14;3.90;;;2.30;;
27495;SDS011;14929;51.336;9.416;2023-05-10T14:39:42;2.33;;;1.73;;
27495;SDS011;14929;51.336;9.416;2023-05-10T14:42:09;2.20;;;2.00;;
27495;SDS011;14929;51.336;9.416;2023-05-10T14:44:36;2.63;;;2.42;;
27495;SDS011;14929;51.336;9.416;2023-05-10T14:47:08;4.47;;;2.53;;
27495;SDS011;14929;51.336;9.416;2023-05-10T14:49:35;3.00;;;2.80;;
27495;SDS011;14929;51.336;9.416;2023-05-10T14:52:03;3.45;;;2.35;;
27495;SDS011;14929;51.336;9.416;2023-05-10T14:54:31;3.53;;;2.95;;
27495;SDS011;14929;51.336;9.416;2023-05-10T14:56:59;2.67;;;2.10;;
27495;SDS011;14929;51.336;9.416;2023-05-10T14:59:26;2.25;;;2.05;;
27495;SDS011;14929;51.336;9.416;2023-05-10T15:01:54;4.07;;;2.30;;
27495;SDS011;14929;51.336;9.416;2023-05-10T15:04:23;2.55;;;1.77;;